Погода Каталанна неделю

Гояс, Бразилия

13 - 19 июля
  • 13июля
    Сегодня
    +15°
    +28°
    Небольшая облачность
    ВремяПогодаТемператураВлажностьДавлениеВетер, м/сВероятность осадков
    00:00Ясно и безоблачно+20°C63 %691 мм2.2 м/с5 %
    03:00Ясно и безоблачно+17°C67 %690 мм2.3 м/с5 %
    06:00Ясно и безоблачно+17°C59 %691 мм4.6 м/с5 %
    09:00Ясно и безоблачно+21°C45 %693 мм2.0 м/с5 %
    12:00Небольшая облачность+26°C34 %693 мм5.5 м/с5 %
    15:00Небольшая облачность+28°C29 %692 мм1.3 м/с5 %
    18:00Ясно и безоблачно+24°C39 %691 мм2.3 м/с5 %
    21:00Ясно и безоблачно+21°C50 %692 мм0.8 м/с5 %
  • 14июля
    Воскресенье
    +14°
    +28°
    Ясно и безоблачно
    ВремяПогодаТемператураВлажностьДавлениеВетер, м/сВероятность осадков
    00:00Ясно и безоблачно+19°C61 %691 мм2.0 м/с5 %
    03:00Ясно и безоблачно+18°C61 %690 мм2.8 м/с5 %
    06:00Ясно и безоблачно+16°C65 %691 мм3.1 м/с5 %
    09:00Ясно и безоблачно+20°C48 %693 мм2.0 м/с5 %
    12:00Ясно и безоблачно+25°C35 %693 мм4.2 м/с5 %
    15:00Ясно и безоблачно+27°C32 %691 мм1.1 м/с5 %
    18:00Ясно и безоблачно+23°C41 %691 мм1.8 м/с5 %
    21:00Ясно и безоблачно+21°C48 %692 мм1.0 м/с5 %
  • 15июля
    Понедельник
    +15°
    +29°
    Ясно и безоблачно
    ВремяПогодаТемператураВлажностьДавлениеВетер, м/сВероятность осадков
    00:00Ясно и безоблачно+19°C56 %691 мм2.3 м/с5 %
    03:00Ясно и безоблачно+16°C69 %690 мм2.2 м/с5 %
    06:00Ясно и безоблачно+14°C74 %690 мм2.2 м/с5 %
    09:00Ясно и безоблачно+21°C45 %693 мм1.6 м/с5 %
    12:00Практически безоблачно+27°C30 %694 мм3.5 м/с5 %
    15:00Ясно и безоблачно+28°C27 %692 мм1.0 м/с5 %
    18:00Ясно и безоблачно+24°C35 %692 мм2.1 м/с5 %
    21:00Ясно и безоблачно+22°C42 %692 мм0.9 м/с5 %
  • 16июля
    Вторник
    +15°
    +29°
    Облачно с прояснениями
    ВремяПогодаТемператураВлажностьДавлениеВетер, м/сВероятность осадков
    00:00Ясно и безоблачно+19°C47 %692 мм2.4 м/с5 %
    03:00Небольшая облачность+17°C58 %690 мм2.3 м/с5 %
    06:00Облачно с прояснениями+16°C59 %690 мм2.5 м/с5 %
    09:00Небольшая облачность+22°C41 %693 мм1.6 м/с5 %
    12:00Небольшая облачность+27°C31 %694 мм4.4 м/с5 %
    15:00Облачно с прояснениями+28°C30 %692 мм1.2 м/с5 %
    18:00Практически безоблачно+24°C38 %692 мм2.0 м/с5 %
    21:00Практически безоблачно+22°C44 %693 мм1.0 м/с5 %
  • 17июля
    Среда
    +15°
    +30°
    Ясно и безоблачно
    ВремяПогодаТемператураВлажностьДавлениеВетер, м/сВероятность осадков
    00:00Ясно и безоблачно+20°C49 %692 мм2.5 м/с5 %
    03:00Ясно и безоблачно+18°C56 %691 мм2.5 м/с5 %
    06:00Ясно и безоблачно+16°C60 %691 мм2.4 м/с5 %
    09:00Небольшая облачность+22°C43 %694 мм1.7 м/с5 %
    12:00Облачно с прояснениями+28°C30 %694 мм2.8 м/с5 %
    15:00Ясно и безоблачно+30°C28 %692 мм0.9 м/с5 %
    18:00Ясно и безоблачно+25°C35 %692 мм1.5 м/с5 %
    21:00Ясно и безоблачно+23°C42 %692 мм0.9 м/с5 %
Мы используем cookies
Соглашаюсь